createdAt,value
2018-11-10T00:00:16.757Z,95116.19
2018-11-10T00:02:48.326Z,95114.17
2018-11-10T00:05:19.087Z,95107.98
2018-11-10T00:07:48.281Z,95103.23
2018-11-10T00:10:17.373Z,95096.86
2018-11-10T00:12:47.731Z,95097.33
2018-11-10T00:15:18.155Z,95098.69
2018-11-10T00:20:23.202Z,95099.78
2018-11-10T00:22:52.311Z,95098.65
2018-11-10T00:25:21.389Z,95092.51
2018-11-10T00:27:50.730Z,95088.68
2018-11-10T00:32:55.521Z,95090.95
2018-11-10T00:35:24.615Z,95087.59
2018-11-10T00:37:53.723Z,95084.64
2018-11-10T00:42:58.603Z,95091.47
2018-11-10T00:45:27.701Z,95088.77
2018-11-10T00:47:56.748Z,95086.72
2018-11-10T00:50:25.805Z,95087.63
2018-11-10T00:55:30.629Z,95078.53
2018-11-10T00:57:59.673Z,95076.23
2018-11-10T01:00:28.720Z,95070.98
2018-11-10T01:05:33.488Z,95067.97
2018-11-10T01:08:02.517Z,95071.08
2018-11-10T01:10:31.568Z,95065.45
2018-11-10T01:15:36.390Z,95066.25
2018-11-10T01:20:41.170Z,95058.66
2018-11-10T01:25:45.918Z,95056.41
2018-11-10T01:30:52.559Z,95051.16
2018-11-10T01:33:21.612Z,95054.94
2018-11-10T01:35:50.669Z,95055.83
2018-11-10T01:38:19.756Z,95051.00
2018-11-10T01:43:24.552Z,95051.23
2018-11-10T01:48:29.556Z,95050.84
2018-11-10T01:50:59.590Z,95052.00
2018-11-10T01:53:28.630Z,95051.39
2018-11-10T01:58:33.381Z,95053.77
2018-11-10T02:01:03.346Z,95051.53
2018-11-10T02:03:32.411Z,95056.60
2018-11-10T02:06:05.438Z,95050.27
2018-11-10T02:08:34.485Z,95051.26
2018-11-10T02:13:39.230Z,95050.89
2018-11-10T02:18:43.984Z,95047.63
2018-11-10T02:26:24.489Z,95032.31
2018-11-10T02:28:53.619Z,95030.23
2018-11-10T02:31:22.694Z,95028.23
2018-11-10T02:33:51.729Z,95025.18
2018-11-10T02:36:20.786Z,95027.16
2018-11-10T02:38:49.939Z,95016.95
2018-11-10T02:41:19.125Z,95014.40
2018-11-10T02:46:23.978Z,95020.94
2018-11-10T02:48:53.021Z,95021.26
2018-11-10T02:51:22.098Z,95018.78
2018-11-10T02:53:51.133Z,95013.63
2018-11-10T03:01:31.669Z,95012.30
2018-11-10T03:06:36.519Z,95005.89
2018-11-10T03:16:44.143Z,95011.97
2018-11-10T03:19:13.205Z,95011.75
2018-11-10T03:21:42.262Z,95004.38
2018-11-10T03:24:11.301Z,94998.98
2018-11-10T03:26:40.349Z,95000.77
2018-11-10T03:29:09.397Z,94996.05
2018-11-10T03:31:38.460Z,94995.03
2018-11-10T03:34:07.503Z,94997.53
2018-11-10T03:36:36.569Z,94995.97
2018-11-10T03:39:06.587Z,95001.25
2018-11-10T03:41:35.638Z,95001.88
2018-11-10T03:44:05.641Z,94998.78
2018-11-10T03:46:34.764Z,94995.45
2018-11-10T03:51:39.546Z,94994.47
2018-11-10T03:54:08.594Z,94994.67
2018-11-10T03:56:37.653Z,94995.56
2018-11-10T03:59:06.708Z,94990.67
2018-11-10T04:01:35.757Z,94991.61
2018-11-10T04:04:04.822Z,94993.89
2018-11-10T04:06:33.933Z,94992.72
2018-11-10T04:09:02.979Z,94989.89
2018-11-10T04:11:32.025Z,94990.37
2018-11-10T04:14:01.082Z,94991.63
2018-11-10T04:16:30.224Z,94994.40
2018-11-10T04:21:34.963Z,94991.95
2018-11-10T04:26:39.719Z,94990.68
2018-11-10T04:29:09.787Z,94985.51
2018-11-10T04:31:38.832Z,94982.03
2018-11-10T04:39:19.331Z,94975.84
2018-11-10T04:44:29.802Z,94968.05
2018-11-10T04:46:58.850Z,94969.66
2018-11-10T04:49:28.121Z,94963.84
2018-11-10T04:51:57.169Z,94963.77
2018-11-10T04:54:26.244Z,94962.64
2018-11-10T04:59:30.995Z,94962.64
2018-11-10T05:02:01.036Z,94969.58
2018-11-10T05:04:30.097Z,94970.41
2018-11-10T05:06:59.151Z,94968.45
2018-11-10T05:09:28.188Z,94966.80
2018-11-10T05:11:57.269Z,94959.70
2018-11-10T05:14:26.454Z,94960.37
2018-11-10T05:16:55.479Z,94955.80
2018-11-10T05:19:24.556Z,94957.84
2018-11-10T05:21:54.557Z,94961.13
2018-11-10T05:24:23.596Z,94967.10
2018-11-10T05:29:28.330Z,94957.81
2018-11-10T05:31:57.393Z,94956.94
2018-11-10T05:34:26.444Z,94954.67
2018-11-10T05:36:55.499Z,94954.84
2018-11-10T05:39:24.541Z,94956.03
2018-11-10T05:41:54.713Z,94954.22
2018-11-10T05:44:23.752Z,94952.69
2018-11-10T05:46:52.820Z,94958.73
2018-11-10T05:49:21.919Z,94962.11
2018-11-10T05:51:50.966Z,94963.39
2018-11-10T05:54:20.012Z,94959.41
2018-11-10T05:57:03.818Z,94956.31
2018-11-10T05:59:42.241Z,94950.59
2018-11-10T06:02:24.143Z,94947.85
2018-11-10T06:05:07.341Z,94949.84
2018-11-10T06:07:37.016Z,94949.23
2018-11-10T06:10:06.222Z,94945.65
2018-11-10T06:12:35.136Z,94943.73
2018-11-10T06:17:39.878Z,94951.19
2018-11-10T06:20:08.931Z,94949.67
2018-11-10T06:22:38.200Z,94951.66
2018-11-10T06:25:08.263Z,94954.28
2018-11-10T06:27:37.371Z,94953.45
2018-11-10T06:30:06.396Z,94952.51
2018-11-10T06:32:35.498Z,94948.98
2018-11-10T06:35:04.530Z,94946.25
2018-11-10T06:37:33.576Z,94944.33
2018-11-10T06:40:02.641Z,94943.45
2018-11-10T06:45:07.809Z,94944.16
2018-11-10T06:47:36.845Z,94937.43
2018-11-10T06:52:41.646Z,94930.27
2018-11-10T06:55:11.644Z,94930.73
2018-11-10T06:57:40.923Z,94923.82
2018-11-10T07:00:09.975Z,94929.96
2018-11-10T07:02:39.025Z,94929.67
2018-11-10T07:10:19.521Z,94933.27
2018-11-10T07:15:24.306Z,94938.49
2018-11-10T07:20:29.028Z,94941.77
2018-11-10T07:22:58.085Z,94937.63
2018-11-10T07:25:27.124Z,94943.28
2018-11-10T07:27:56.185Z,94944.09
2018-11-10T07:30:25.381Z,94947.13
2018-11-10T07:32:54.450Z,94949.91
2018-11-10T07:35:23.483Z,94949.91
2018-11-10T07:37:53.370Z,94954.77
2018-11-10T07:40:22.402Z,94942.85
2018-11-10T07:42:51.448Z,94943.39
2018-11-10T07:45:20.491Z,94947.34
2018-11-10T07:47:49.544Z,94940.48
2018-11-10T07:50:19.673Z,94936.55
2018-11-10T07:52:48.707Z,94934.38
2018-11-10T07:55:17.763Z,94931.62
2018-11-10T07:57:48.761Z,94929.66
2018-11-10T08:00:23.477Z,94929.59
2018-11-10T08:02:52.569Z,94927.17
2018-11-10T08:05:21.617Z,94919.27
2018-11-10T08:10:26.417Z,94919.23
2018-11-10T08:15:31.726Z,94923.08
2018-11-10T08:20:36.482Z,94926.31
2018-11-10T08:23:05.653Z,94919.19
2018-11-10T08:25:34.754Z,94922.17
2018-11-10T08:28:03.788Z,94924.94
2018-11-10T08:30:32.938Z,94919.17
2018-11-10T08:33:01.982Z,94920.55
2018-11-10T08:35:32.969Z,94917.03
2018-11-10T08:38:04.015Z,94916.27
2018-11-10T08:40:34.970Z,94919.20
2018-11-10T08:43:04.107Z,94915.69
2018-11-10T08:48:08.875Z,94918.08
2018-11-10T08:50:37.933Z,94917.02
2018-11-10T08:53:07.018Z,94917.59
2018-11-10T08:55:36.046Z,94920.42
2018-11-10T08:58:05.110Z,94916.34
2018-11-10T09:00:34.228Z,94917.02
2018-11-10T09:03:03.264Z,94907.79
2018-11-10T09:05:32.421Z,94914.93
2018-11-10T09:08:01.617Z,94912.61
2018-11-10T09:10:32.075Z,94906.19
2018-11-10T09:13:02.486Z,94906.47
2018-11-10T09:15:31.549Z,94901.23
2018-11-10T09:18:00.601Z,94892.53
2018-11-10T09:20:30.639Z,94886.09
2018-11-10T09:22:59.702Z,94888.13
2018-11-10T09:25:28.782Z,94884.30
2018-11-10T09:27:59.026Z,94879.95
2018-11-10T09:30:28.116Z,94888.25
2018-11-10T09:32:57.183Z,94893.11
2018-11-10T09:35:26.304Z,94880.64
2018-11-10T09:37:55.410Z,94883.98
2018-11-10T09:40:24.461Z,94882.17
2018-11-10T09:42:53.597Z,94871.14
2018-11-10T09:45:22.663Z,94871.84
2018-11-10T09:47:51.763Z,94871.79
2018-11-10T09:50:20.857Z,94881.91
2018-11-10T09:52:50.135Z,94883.83
2018-11-10T09:55:22.882Z,94878.32
2018-11-10T09:57:53.656Z,94869.37
2018-11-10T10:00:25.797Z,94859.60
2018-11-10T10:02:54.979Z,94852.55
2018-11-10T10:05:24.006Z,94857.47
2018-11-10T10:07:53.155Z,94855.24
2018-11-10T10:10:23.117Z,94859.77
2018-11-10T10:12:52.574Z,94853.58
2018-11-10T10:15:21.629Z,94857.75
2018-11-10T10:17:50.726Z,94855.67
2018-11-10T10:20:19.798Z,94844.59
2018-11-10T10:22:49.126Z,94845.31
2018-11-10T10:25:18.195Z,94834.91
2018-11-10T10:27:47.301Z,94825.31
2018-11-10T10:30:18.277Z,94824.00
2018-11-10T10:32:47.429Z,94824.52
2018-11-10T10:35:16.613Z,94814.48
2018-11-10T10:37:46.075Z,94807.33
2018-11-10T10:40:15.403Z,94799.63
2018-11-10T10:45:20.728Z,94801.56
2018-11-10T10:47:51.429Z,94794.11
2018-11-10T10:50:20.534Z,94801.48
2018-11-10T10:52:49.674Z,94800.99
2018-11-10T10:55:19.629Z,94795.46
2018-11-10T10:57:48.910Z,94790.36
2018-11-10T11:00:18.417Z,94789.64
2018-11-10T11:02:57.768Z,94789.39
2018-11-10T11:05:26.949Z,94784.95
2018-11-10T11:10:31.862Z,94766.22
2018-11-10T11:13:01.034Z,94758.14
2018-11-10T11:15:30.175Z,94758.21
2018-11-10T11:17:59.165Z,94761.34
2018-11-10T11:23:04.703Z,94762.95
2018-11-10T11:25:33.773Z,94764.57
2018-11-10T11:28:02.825Z,94751.10
2018-11-10T11:30:31.898Z,94762.62
2018-11-10T11:33:00.989Z,94756.98
2018-11-10T11:35:30.089Z,94748.55
2018-11-10T11:37:59.260Z,94748.59
2018-11-10T11:40:28.304Z,94745.66
2018-11-10T11:42:57.367Z,94741.59
2018-11-10T11:45:26.516Z,94737.36
2018-11-10T11:47:55.585Z,94737.50
2018-11-10T11:50:24.825Z,94746.84
2018-11-10T11:52:54.219Z,94742.05
2018-11-10T11:55:32.323Z,94743.59
2018-11-10T11:58:02.634Z,94745.63
2018-11-10T12:00:32.796Z,94746.37
2018-11-10T12:03:02.010Z,94743.77
2018-11-10T12:05:31.173Z,94735.36
2018-11-10T12:08:00.221Z,94739.27
2018-11-10T12:10:30.263Z,94739.88
2018-11-10T12:12:59.751Z,94737.86
2018-11-10T12:15:29.090Z,94742.58
2018-11-10T12:17:58.189Z,94743.75
2018-11-10T12:23:04.099Z,94747.08
2018-11-10T12:25:34.072Z,94746.63
2018-11-10T12:28:03.142Z,94743.89
2018-11-10T12:30:32.200Z,94751.85
2018-11-10T12:33:01.464Z,94749.56
2018-11-10T12:35:30.505Z,94742.86
2018-11-10T12:37:59.583Z,94745.84
2018-11-10T12:40:28.788Z,94742.67
2018-11-10T12:42:57.860Z,94744.30
2018-11-10T12:45:26.918Z,94748.28
2018-11-10T12:47:55.974Z,94746.41
2018-11-10T12:50:25.033Z,94744.63
2018-11-10T12:52:54.099Z,94742.13
2018-11-10T12:55:23.188Z,94738.64
2018-11-10T12:57:52.321Z,94743.28
2018-11-10T13:02:57.114Z,94754.15
2018-11-10T13:05:26.219Z,94756.55
2018-11-10T13:07:55.308Z,94758.19
2018-11-10T13:10:24.345Z,94755.91
2018-11-10T13:12:53.647Z,94758.44
2018-11-10T13:17:58.556Z,94758.98
2018-11-10T13:23:03.392Z,94750.74
2018-11-10T13:25:32.465Z,94750.53
2018-11-10T13:28:01.574Z,94755.70
2018-11-10T13:30:30.655Z,94750.96
2018-11-10T13:32:59.720Z,94750.57
2018-11-10T13:35:30.969Z,94748.55
2018-11-10T13:38:00.039Z,94747.84
2018-11-10T13:40:30.114Z,94758.75
2018-11-10T13:42:59.216Z,94758.38
2018-11-10T13:45:28.239Z,94755.51
2018-11-10T13:47:58.407Z,94756.72
2018-11-10T13:50:27.929Z,94757.68
2018-11-10T13:52:57.440Z,94754.34
2018-11-10T13:55:26.023Z,94763.43
2018-11-10T13:57:55.125Z,94762.13
2018-11-10T14:00:24.211Z,94755.88
2018-11-10T14:02:53.261Z,94762.39
2018-11-10T14:07:58.117Z,94757.23
2018-11-10T14:10:27.213Z,94754.62
2018-11-10T14:12:56.225Z,94758.95
2018-11-10T14:15:25.290Z,94761.93
2018-11-10T14:17:56.322Z,94764.37
2018-11-10T14:20:25.402Z,94765.91
2018-11-10T14:22:56.380Z,94769.61
2018-11-10T14:25:25.478Z,94776.50
2018-11-10T14:30:31.177Z,94775.55
2018-11-10T14:35:37.985Z,94782.20
2018-11-10T14:38:07.098Z,94789.72
2018-11-10T14:40:36.146Z,94788.34
2018-11-10T14:43:05.235Z,94787.97
2018-11-10T14:45:34.281Z,94797.19
2018-11-10T14:48:03.434Z,94792.70
2018-11-10T14:50:32.452Z,94796.02
2018-11-10T14:53:01.681Z,94794.41
2018-11-10T14:55:34.587Z,94799.06
2018-11-10T14:58:03.638Z,94791.34
2018-11-10T15:00:32.703Z,94790.95
2018-11-10T15:03:01.762Z,94795.63
2018-11-10T15:05:30.856Z,94801.98
2018-11-10T15:07:59.909Z,94801.37
2018-11-10T15:10:28.974Z,94804.40
2018-11-10T15:12:58.013Z,94804.88
2018-11-10T15:15:27.233Z,94801.22
2018-11-10T15:17:56.409Z,94801.59
2018-11-10T15:20:25.309Z,94801.91
2018-11-10T15:22:54.408Z,94802.06
2018-11-10T15:25:23.524Z,94804.92
2018-11-10T15:27:52.524Z,94805.53
2018-11-10T15:30:23.500Z,94810.68
2018-11-10T15:32:54.528Z,94809.14
2018-11-10T15:35:23.572Z,94809.70
2018-11-10T15:37:52.620Z,94810.66
2018-11-10T15:42:57.374Z,94826.76
2018-11-10T15:45:26.437Z,94833.97
2018-11-10T15:47:55.493Z,94841.30
2018-11-10T15:50:24.582Z,94839.70
2018-11-10T15:52:53.576Z,94831.67
2018-11-10T15:55:23.528Z,94828.89
2018-11-10T15:57:53.549Z,94837.55
2018-11-10T16:00:22.598Z,94844.11
2018-11-10T16:02:51.667Z,94846.17
2018-11-10T16:05:20.705Z,94847.13
2018-11-10T16:07:50.849Z,94851.16
2018-11-10T16:10:20.019Z,94849.59
2018-11-10T16:12:48.958Z,94843.68
2018-11-10T16:15:18.073Z,94844.60
2018-11-10T16:17:47.125Z,94845.30
2018-11-10T16:20:16.217Z,94853.81
2018-11-10T16:22:45.280Z,94851.75
2018-11-10T16:25:14.335Z,94848.50
2018-11-10T16:27:43.389Z,94847.27
2018-11-10T16:30:12.479Z,94852.11
2018-11-10T16:32:41.695Z,94851.14
2018-11-10T16:35:10.768Z,94847.08
2018-11-10T16:37:39.815Z,94849.36
2018-11-10T16:40:08.943Z,94844.08
2018-11-10T16:42:38.049Z,94846.41
2018-11-10T16:45:07.091Z,94846.56
2018-11-10T16:47:37.020Z,94848.86
2018-11-10T16:50:06.126Z,94848.61
2018-11-10T16:52:35.511Z,94839.17
2018-11-10T16:55:04.602Z,94835.92
2018-11-10T16:57:33.643Z,94837.64
2018-11-10T17:02:38.393Z,94831.52
2018-11-10T17:05:07.439Z,94831.34
2018-11-10T17:07:36.487Z,94836.55
2018-11-10T17:12:41.233Z,94833.21
2018-11-10T17:17:46.010Z,94828.23
2018-11-10T17:20:15.053Z,94821.55
2018-11-10T17:22:44.190Z,94822.78
2018-11-10T17:25:13.353Z,94821.74
2018-11-10T17:27:42.692Z,94818.16
2018-11-10T17:30:11.804Z,94812.22
2018-11-10T17:32:40.931Z,94818.02
2018-11-10T17:35:09.954Z,94820.91
2018-11-10T17:37:39.059Z,94812.60
2018-11-10T17:40:08.188Z,94808.27
2018-11-10T17:42:37.209Z,94808.20
2018-11-10T17:45:06.258Z,94808.63
2018-11-10T17:47:35.293Z,94816.73
2018-11-10T17:50:04.533Z,94811.95
2018-11-10T17:52:33.602Z,94805.09
2018-11-10T17:55:02.647Z,94803.28
2018-11-10T17:57:31.748Z,94805.52
2018-11-10T18:02:37.500Z,94800.68
2018-11-10T18:07:42.310Z,94813.20
2018-11-10T18:15:23.029Z,94825.81
2018-11-10T18:17:52.133Z,94823.63
2018-11-10T18:20:21.168Z,94817.03
2018-11-10T18:22:50.216Z,94819.20
2018-11-10T18:25:19.337Z,94824.53
2018-11-10T18:27:48.366Z,94829.65
2018-11-10T18:30:17.419Z,94833.70
2018-11-10T18:35:22.186Z,94835.45
2018-11-10T18:37:51.307Z,94834.09
2018-11-10T18:40:20.364Z,94834.11
2018-11-10T18:45:25.103Z,94839.27
2018-11-10T18:47:54.235Z,94840.96
2018-11-10T18:50:23.329Z,94839.91
2018-11-10T18:52:52.443Z,94833.58
2018-11-10T18:55:21.601Z,94836.35
2018-11-10T18:57:50.637Z,94827.52
2018-11-10T19:00:19.745Z,94829.94
2018-11-10T19:08:02.255Z,94834.75
2018-11-10T19:10:31.449Z,94832.52
2018-11-10T19:13:00.555Z,94834.50
2018-11-10T19:15:29.609Z,94832.70
2018-11-10T19:17:58.745Z,94836.30
2018-11-10T19:20:27.977Z,94848.37
2018-11-10T19:22:57.084Z,94838.38
2018-11-10T19:25:26.147Z,94834.06
2018-11-10T19:27:55.202Z,94835.44
2018-11-10T19:30:24.249Z,94837.72
2018-11-10T19:32:53.293Z,94844.55
2018-11-10T19:37:58.108Z,94866.91
2018-11-10T19:43:02.858Z,94860.02
2018-11-10T19:45:31.909Z,94852.91
2018-11-10T19:48:01.131Z,94855.77
2018-11-10T19:50:30.480Z,94853.20
2018-11-10T19:52:59.568Z,94860.41
2018-11-10T19:55:29.213Z,94851.93
2018-11-10T19:57:58.290Z,94843.91
2018-11-10T20:00:27.352Z,94843.20
2018-11-10T20:02:56.448Z,94855.39
2018-11-10T20:05:25.996Z,94858.53
2018-11-10T20:07:55.126Z,94861.38
2018-11-10T20:10:24.171Z,94852.98
2018-11-10T20:12:53.253Z,94858.95
2018-11-10T20:15:22.368Z,94853.80
2018-11-10T20:17:51.487Z,94862.72
2018-11-10T20:20:20.533Z,94857.48
2018-11-10T20:22:49.581Z,94857.76
2018-11-10T20:25:18.730Z,94860.17
2018-11-10T20:27:47.777Z,94864.58
2018-11-10T20:32:53.089Z,94868.95
2018-11-10T20:35:22.179Z,94868.86
2018-11-10T20:37:51.606Z,94874.98
2018-11-10T20:40:20.753Z,94872.20
2018-11-10T20:42:49.783Z,94871.21
2018-11-10T20:47:54.649Z,94867.25
2018-11-10T20:52:59.458Z,94867.53
2018-11-10T20:55:28.516Z,94867.02
2018-11-10T20:57:57.691Z,94859.91
2018-11-10T21:00:26.974Z,94859.03
2018-11-10T21:02:56.204Z,94863.10
2018-11-10T21:05:25.488Z,94864.74
2018-11-10T21:07:54.543Z,94869.55
2018-11-10T21:10:23.588Z,94869.58
2018-11-10T21:12:52.694Z,94867.45
2018-11-10T21:15:21.720Z,94864.33
2018-11-10T21:17:50.776Z,94867.39
2018-11-10T21:20:19.873Z,94861.82
2018-11-10T21:22:48.912Z,94858.86
2018-11-10T21:25:18.738Z,94862.11
2018-11-10T21:27:47.776Z,94867.02
2018-11-10T21:30:16.971Z,94867.75
2018-11-10T21:35:22.413Z,94876.84
2018-11-10T21:37:51.404Z,94871.16
2018-11-10T21:40:20.464Z,94885.74
2018-11-10T21:45:26.301Z,94879.70
2018-11-10T21:47:55.493Z,94873.68
2018-11-10T21:50:24.694Z,94875.66
2018-11-10T21:52:53.993Z,94881.00
2018-11-10T21:55:23.288Z,94871.70
2018-11-10T21:57:52.559Z,94870.67
2018-11-10T22:00:21.643Z,94875.92
2018-11-10T22:02:52.768Z,94875.67
2018-11-10T22:05:21.828Z,94883.80
2018-11-10T22:07:50.894Z,94887.84
2018-11-10T22:10:22.741Z,94887.08
2018-11-10T22:12:51.774Z,94877.06
2018-11-10T22:15:20.829Z,94875.11
2018-11-10T22:17:49.912Z,94874.56
2018-11-10T22:20:19.485Z,94864.04
2018-11-10T22:22:48.659Z,94860.55
2018-11-10T22:25:17.645Z,94857.09
2018-11-10T22:27:47.769Z,94863.50
2018-11-10T22:30:16.904Z,94857.05
2018-11-10T22:32:46.178Z,94860.22
2018-11-10T22:35:15.305Z,94862.05
2018-11-10T22:37:44.429Z,94859.15
2018-11-10T22:40:16.740Z,94868.02
2018-11-10T22:42:56.410Z,94868.44
2018-11-10T22:45:37.112Z,94862.75
2018-11-10T22:50:42.485Z,94858.03
2018-11-10T22:53:11.541Z,94863.52
2018-11-10T22:55:40.722Z,94864.56
2018-11-10T22:58:09.825Z,94869.31
2018-11-10T23:00:39.004Z,94863.50
2018-11-10T23:03:08.049Z,94853.74
2018-11-10T23:05:37.163Z,94849.97
2018-11-10T23:08:06.270Z,94846.48
2018-11-10T23:10:35.404Z,94849.31
2018-11-10T23:13:04.540Z,94857.59
2018-11-10T23:15:33.657Z,94852.50
2018-11-10T23:18:02.787Z,94857.34
2018-11-10T23:20:31.918Z,94857.64
2018-11-10T23:23:01.026Z,94853.80
2018-11-10T23:25:30.160Z,94854.76
2018-11-10T23:27:59.201Z,94852.97
2018-11-10T23:33:04.009Z,94851.34
2018-11-10T23:35:33.045Z,94854.13
2018-11-10T23:40:38.702Z,94853.14
2018-11-10T23:43:07.967Z,94853.03
2018-11-10T23:45:36.999Z,94855.55
2018-11-10T23:48:08.057Z,94857.17
2018-11-10T23:50:37.113Z,94852.08
2018-11-10T23:53:06.191Z,94855.16
2018-11-10T23:55:35.229Z,94854.17
2018-11-10T23:58:06.276Z,94857.70
